Time;durP1;ratioP1;P1;durP2;ratioP2;P2;SDS_P1;SDS_P2;PMS_P1;PMS_P2;Temp;Humidity;BMP_temperature;BMP_pressure;BME280_temperature;BME280_humidity;BME280_pressure;Samples;Min_cycle;Max_cycle;Signal;HPM_P1;HPM_P2
2022/09/20 00:01:09;;;;;;;4.35;2.30;;;;;;;;;;5028984;28;20037;-57
2022/09/20 00:03:36;;;;;;;4.47;2.40;;;;;;;;;;5025941;28;20052;-57
2022/09/20 00:06:02;;;;;;;6.88;2.85;;;;;;;;;;5032354;28;20083;-57
2022/09/20 00:08:28;;;;;;;6.25;2.40;;;;;;;;;;5030383;28;20029;-57
2022/09/20 00:11:01;;;;;;;5.72;2.80;;;;;;;;;;5028079;28;20029;-57
2022/09/20 00:13:28;;;;;;;9.10;2.80;;;;;;;;;;5028540;28;20024;-57
2022/09/20 00:15:53;;;;;;;9.85;2.70;;;;;;;;;;5029027;28;20056;-57
2022/09/20 00:18:19;;;;;;;5.22;2.92;;;;;;;;;;5029967;28;20071;-57
2022/09/20 00:20:46;;;;;;;8.15;2.35;;;;;;;;;;5029360;28;20390;-57
2022/09/20 00:23:12;;;;;;;5.32;2.50;;;;;;;;;;5028212;28;20029;-57
2022/09/20 00:25:37;;;;;;;8.45;2.58;;;;;;;;;;5032932;28;20029;-57
2022/09/20 00:28:03;;;;;;;5.28;2.47;;;;;;;;;;5027984;28;20033;-57
2022/09/20 00:30:28;;;;;;;6.53;2.50;;;;;;;;;;5028208;28;20029;-57
2022/09/20 00:32:54;;;;;;;6.60;2.58;;;;;;;;;;5028524;28;20440;-57
2022/09/20 00:35:19;;;;;;;8.05;2.55;;;;;;;;;;5028657;28;20030;-57
2022/09/20 00:37:45;;;;;;;4.63;2.30;;;;;;;;;;5030520;28;20058;-57
2022/09/20 00:40:16;;;;;;;4.28;2.70;;;;;;;;;;5033497;28;20025;-57
2022/09/20 00:42:41;;;;;;;6.30;2.70;;;;;;;;;;5028217;28;20128;-57
2022/09/20 00:45:20;;;;;;;7.38;2.35;;;;;;;;;;5026041;28;20112;-57
2022/09/20 00:48:01;;;;;;;6.38;2.88;;;;;;;;;;5027703;28;20463;-57
2022/09/20 00:50:53;;;;;;;8.05;2.70;;;;;;;;;;5031332;28;20513;-57
2022/09/20 00:53:19;;;;;;;5.85;2.75;;;;;;;;;;5028549;28;20064;-57
2022/09/20 00:56:10;;;;;;;5.07;2.40;;;;;;;;;;5029050;28;20479;-57
2022/09/20 00:58:38;;;;;;;4.80;2.42;;;;;;;;;;5024395;28;20509;-57
2022/09/20 01:01:04;;;;;;;5.43;2.50;;;;;;;;;;5027452;28;20405;-57
2022/09/20 01:03:32;;;;;;;6.18;2.80;;;;;;;;;;5037970;28;20025;-57
2022/09/20 01:06:02;;;;;;;12.00;3.30;;;;;;;;;;5028389;28;20112;-57
2022/09/20 01:08:28;;;;;;;4.20;2.30;;;;;;;;;;5028210;28;20077;-57
2022/09/20 01:10:54;;;;;;;8.40;2.55;;;;;;;;;;5029181;28;20087;-57
2022/09/20 01:13:19;;;;;;;4.40;2.20;;;;;;;;;;5027630;28;20073;-57
2022/09/20 01:15:47;;;;;;;6.22;2.30;;;;;;;;;;5027449;28;20034;-57
2022/09/20 01:18:15;;;;;;;5.90;2.38;;;;;;;;;;5027415;28;20021;-56
2022/09/20 01:20:43;;;;;;;6.45;2.35;;;;;;;;;;5027800;28;20104;-57
2022/09/20 01:23:17;;;;;;;11.27;2.75;;;;;;;;;;5029395;28;20130;-56
2022/09/20 01:26:00;;;;;;;8.48;2.63;;;;;;;;;;5025823;28;20077;-57
2022/09/20 01:28:27;;;;;;;5.32;2.60;;;;;;;;;;5023708;28;20557;-56
2022/09/20 01:30:56;;;;;;;5.55;2.47;;;;;;;;;;5027371;28;20084;-56
2022/09/20 01:33:35;;;;;;;3.80;2.30;;;;;;;;;;5027110;28;20515;-56
2022/09/20 01:36:03;;;;;;;5.45;2.30;;;;;;;;;;5027357;28;20498;-56
2022/09/20 01:38:41;;;;;;;4.57;2.55;;;;;;;;;;5027777;28;20029;-56
2022/09/20 01:41:26;;;;;;;6.13;2.60;;;;;;;;;;5027350;28;20076;-56
2022/09/20 01:44:19;;;;;;;5.55;2.55;;;;;;;;;;5027080;28;20108;-57
2022/09/20 01:46:47;;;;;;;4.25;3.22;;;;;;;;;;5026467;28;20042;-56
2022/09/20 01:49:27;;;;;;;5.03;2.60;;;;;;;;;;5024574;28;20033;-56
2022/09/20 01:52:11;;;;;;;5.90;2.40;;;;;;;;;;5027125;28;20056;-56
2022/09/20 01:54:43;;;;;;;5.15;2.33;;;;;;;;;;5022591;28;20009;-56
2022/09/20 01:57:23;;;;;;;7.03;2.45;;;;;;;;;;5031878;28;20428;-57
2022/09/20 02:00:02;;;;;;;13.88;4.93;;;;;;;;;;5026702;28;20032;-57
2022/09/20 02:02:27;;;;;;;15.33;5.80;;;;;;;;;;5027002;28;20041;-57
2022/09/20 02:04:53;;;;;;;11.13;3.65;;;;;;;;;;5027846;28;20482;-57
2022/09/20 02:07:55;;;;;;;7.85;4.03;;;;;;;;;;5027867;28;20551;-57
2022/09/20 02:10:26;;;;;;;10.00;3.38;;;;;;;;;;5024991;28;20037;-57
2022/09/20 02:12:54;;;;;;;8.57;3.85;;;;;;;;;;5027126;28;20033;-57
2022/09/20 02:15:40;;;;;;;9.60;2.60;;;;;;;;;;5027637;28;20422;-57
2022/09/20 02:18:15;;;;;;;4.57;2.22;;;;;;;;;;5027652;28;20037;-57
2022/09/20 02:21:08;;;;;;;6.05;2.28;;;;;;;;;;5023762;28;20021;-57
2022/09/20 02:23:36;;;;;;;5.90;2.28;;;;;;;;;;5025378;28;20113;-57
2022/09/20 02:26:05;;;;;;;7.32;2.33;;;;;;;;;;5025775;28;20060;-57
2022/09/20 02:28:52;;;;;;;8.43;3.20;;;;;;;;;;5025415;28;20036;-57
2022/09/20 02:31:43;;;;;;;17.05;6.38;;;;;;;;;;5023888;28;20100;-57
2022/09/20 02:34:49;;;;;;;22.67;6.88;;;;;;;;;;5025458;28;20030;-57
2022/09/20 02:37:41;;;;;;;6.88;3.20;;;;;;;;;;5030675;28;20556;-57
2022/09/20 02:40:10;;;;;;;9.10;3.40;;;;;;;;;;5029050;28;20061;-57
2022/09/20 02:43:13;;;;;;;8.20;2.72;;;;;;;;;;5028846;28;20021;-57
2022/09/20 02:45:46;;;;;;;9.05;2.78;;;;;;;;;;5025096;28;20025;-57
2022/09/20 02:48:16;;;;;;;8.55;3.25;;;;;;;;;;5029244;28;20626;-57
2022/09/20 02:50:53;;;;;;;7.00;3.03;;;;;;;;;;5029709;28;20025;-57
2022/09/20 02:53:21;;;;;;;10.32;3.55;;;;;;;;;;5028408;28;20084;-57
2022/09/20 02:56:01;;;;;;;7.22;4.68;;;;;;;;;;5031368;28;20028;-57
2022/09/20 02:58:59;;;;;;;8.98;3.33;;;;;;;;;;5029935;28;20033;-57
2022/09/20 03:01:50;;;;;;;5.22;2.92;;;;;;;;;;5028053;28;20083;-57
2022/09/20 03:04:36;;;;;;;4.85;2.50;;;;;;;;;;5011719;28;20117;-57
2022/09/20 03:07:17;;;;;;;5.88;2.92;;;;;;;;;;5027998;28;20028;-57
2022/09/20 03:10:21;;;;;;;6.40;2.75;;;;;;;;;;5028853;28;20033;-57
2022/09/20 03:13:05;;;;;;;10.90;3.17;;;;;;;;;;5027440;28;20055;-57
2022/09/20 03:15:49;;;;;;;7.75;3.20;;;;;;;;;;5024756;28;20028;-56
2022/09/20 03:18:30;;;;;;;7.55;3.35;;;;;;;;;;5027437;28;20401;-57
2022/09/20 03:21:04;;;;;;;8.00;3.50;;;;;;;;;;5028175;28;20037;-57
2022/09/20 03:23:42;;;;;;;6.72;3.17;;;;;;;;;;5028148;28;20057;-57
2022/09/20 03:26:16;;;;;;;6.53;3.00;;;;;;;;;;5026029;28;20567;-57
2022/09/20 03:29:14;;;;;;;7.32;3.83;;;;;;;;;;5029130;28;20033;-57
2022/09/20 03:32:00;;;;;;;4.80;3.20;;;;;;;;;;5027309;28;20060;-57
2022/09/20 03:34:42;;;;;;;6.63;3.00;;;;;;;;;;5028836;28;20116;-57
2022/09/20 03:37:33;;;;;;;6.53;2.70;;;;;;;;;;5026752;28;20113;-57
2022/09/20 03:40:01;;;;;;;6.57;3.00;;;;;;;;;;5026877;28;20017;-57
2022/09/20 03:42:30;;;;;;;6.07;3.10;;;;;;;;;;5028167;28;20029;-57
2022/09/20 03:45:22;;;;;;;7.18;2.85;;;;;;;;;;5029430;28;20029;-57
2022/09/20 03:48:15;;;;;;;9.25;2.78;;;;;;;;;;5028248;28;20041;-56
2022/09/20 03:50:53;;;;;;;10.35;3.55;;;;;;;;;;5028529;28;20567;-56
2022/09/20 03:53:56;;;;;;;4.70;2.70;;;;;;;;;;5026495;28;20065;-57
2022/09/20 03:56:49;;;;;;;4.05;2.92;;;;;;;;;;5024095;28;20021;-56
2022/09/20 03:59:36;;;;;;;4.63;3.58;;;;;;;;;;5026470;28;20030;-56
2022/09/20 04:02:19;;;;;;;8.60;4.20;;;;;;;;;;5027764;28;20111;-56
2022/09/20 04:05:04;;;;;;;7.57;3.35;;;;;;;;;;5062669;28;20040;-56
2022/09/20 04:08:09;;;;;;;7.90;3.60;;;;;;;;;;5029229;28;20029;-56
2022/09/20 04:11:01;;;;;;;9.10;3.60;;;;;;;;;;5028088;28;20204;-56
2022/09/20 04:13:39;;;;;;;3.97;3.13;;;;;;;;;;5034850;28;20495;-56
2022/09/20 04:16:13;;;;;;;6.72;4.00;;;;;;;;;;5029070;28;20029;-57
2022/09/20 04:18:42;;;;;;;5.93;3.30;;;;;;;;;;5020542;28;20053;-56
2022/09/20 04:21:12;;;;;;;5.25;2.90;;;;;;;;;;5029452;28;20071;-56
2022/09/20 04:23:48;;;;;;;7.32;3.60;;;;;;;;;;5027184;28;20514;-56
2022/09/20 04:26:25;;;;;;;7.40;3.28;;;;;;;;;;5031019;28;20041;-58
2022/09/20 04:28:54;;;;;;;8.23;3.85;;;;;;;;;;5033808;28;20037;-57
2022/09/20 04:31:40;;;;;;;11.05;4.95;;;;;;;;;;5022208;28;20033;-57
2022/09/20 04:36:27;;;;;;;13.70;4.65;;;;;;;;;;5026009;28;20506;-58
2022/09/20 04:37:23;;;;;;;8.68;4.47;;;;;;;;;;5029520;28;20044;-56
2022/09/20 04:40:01;;;;;;;6.65;3.55;;;;;;;;;;5034171;28;20100;-57
2022/09/20 04:42:35;;;;;;;7.43;4.38;;;;;;;;;;5034430;28;20085;-57
2022/09/20 04:45:06;;;;;;;11.00;4.18;;;;;;;;;;5036149;28;20035;-58
2022/09/20 04:48:10;;;;;;;9.18;3.80;;;;;;;;;;5034543;28;20029;-57
2022/09/20 04:51:12;;;;;;;8.77;4.82;;;;;;;;;;5026179;28;20454;-57
2022/09/20 04:54:05;;;;;;;7.82;4.30;;;;;;;;;;5026958;28;20036;-56
2022/09/20 04:57:15;;;;;;;6.15;3.20;;;;;;;;;;5030873;28;20033;-56
2022/09/20 05:00:01;;;;;;;;;;;;;;;;;;5012839;28;20038;-55
2022/09/20 05:03:10;;;;;;;10.98;3.65;;;;;;;;;;5022927;28;19919;-59
2022/09/20 05:05:50;;;;;;;13.17;4.77;;;;;;;;;;5027004;28;20052;-59
2022/09/20 05:08:21;;;;;;;12.50;5.88;;;;;;;;;;5029070;28;20025;-59
2022/09/20 05:11:03;;;;;;;11.48;6.68;;;;;;;;;;5028157;28;20525;-60
2022/09/20 05:14:06;;;;;;;11.85;7.30;;;;;;;;;;5027836;28;20040;-60
2022/09/20 05:16:40;;;;;;;12.32;7.95;;;;;;;;;;5025514;28;20022;-60
2022/09/20 05:19:26;;;;;;;15.13;8.40;;;;;;;;;;5028886;28;20104;-60
2022/09/20 05:22:21;;;;;;;13.60;8.68;;;;;;;;;;5011564;28;20534;-60
2022/09/20 05:25:25;;;;;;;18.50;8.60;;;;;;;;;;5007456;28;20038;-60
2022/09/20 05:28:29;;;;;;;11.05;6.90;;;;;;;;;;5029656;28;20437;-60
2022/09/20 05:30:59;;;;;;;9.90;5.75;;;;;;;;;;5028348;28;20052;-60
2022/09/20 05:33:32;;;;;;;;;;;;;;;;;;5026097;28;20568;-60
2022/09/20 05:36:15;;;;;;;7.97;4.55;;;;;;;;;;5040866;28;19909;-60
2022/09/20 05:38:58;;;;;;;9.02;4.38;;;;;;;;;;5028718;28;20533;-60
2022/09/20 05:41:32;;;;;;;9.48;5.00;;;;;;;;;;5026881;28;20025;-60
2022/09/20 05:44:06;;;;;;;8.57;4.60;;;;;;;;;;5029738;28;20105;-60
2022/09/20 05:47:02;;;;;;;9.65;4.20;;;;;;;;;;5029098;28;20416;-60
2022/09/20 05:49:49;;;;;;;11.65;5.53;;;;;;;;;;5006248;28;20069;-62
2022/09/20 05:52:35;;;;;;;8.23;4.57;;;;;;;;;;5028402;28;20497;-62
2022/09/20 05:55:27;;;;;;;10.63;4.20;;;;;;;;;;5025979;28;20483;-62
2022/09/20 05:57:55;;;;;;;6.38;4.10;;;;;;;;;;5029596;28;20458;-61
2022/09/20 06:00:26;;;;;;;7.35;4.30;;;;;;;;;;5029449;28;20041;-60
2022/09/20 06:02:55;;;;;;;6.95;4.07;;;;;;;;;;5027801;28;20116;-61
2022/09/20 06:06:01;;;;;;;10.30;4.50;;;;;;;;;;5028994;28;20033;-61
2022/09/20 06:08:56;;;;;;;10.30;4.43;;;;;;;;;;5030148;28;20487;-61
2022/09/20 06:11:30;;;;;;;6.03;4.18;;;;;;;;;;4992895;28;20153;-61
2022/09/20 06:14:17;;;;;;;10.63;5.55;;;;;;;;;;5032630;28;20032;-61
2022/09/20 06:16:55;;;;;;;16.17;6.50;;;;;;;;;;5030652;28;20376;-61
2022/09/20 06:19:47;;;;;;;15.55;6.63;;;;;;;;;;5033191;28;20155;-61
2022/09/20 06:22:23;;;;;;;13.20;5.45;;;;;;;;;;5031428;28;20530;-61
2022/09/20 06:25:08;;;;;;;6.57;4.80;;;;;;;;;;5033395;28;20082;-61
2022/09/20 06:27:43;;;;;;;10.95;8.75;;;;;;;;;;5021878;28;20041;-61
2022/09/20 06:30:35;;;;;;;10.02;6.40;;;;;;;;;;5032686;28;20036;-61
2022/09/20 06:33:07;;;;;;;8.13;4.70;;;;;;;;;;5022225;28;20081;-60
2022/09/20 06:35:40;;;;;;;6.35;4.22;;;;;;;;;;5032165;28;20038;-60
2022/09/20 06:41:29;;;;;;;7.97;4.63;;;;;;;;;;5026035;28;20036;-60
2022/09/20 06:43:59;;;;;;;10.07;6.75;;;;;;;;;;5026614;28;20090;-60
2022/09/20 06:46:33;;;;;;;10.82;4.75;;;;;;;;;;5032026;28;20043;-60
2022/09/20 06:48:58;;;;;;;9.63;4.50;;;;;;;;;;5032204;28;20026;-60
2022/09/20 06:51:27;;;;;;;7.68;4.35;;;;;;;;;;5031756;28;20036;-60
2022/09/20 06:53:54;;;;;;;9.20;4.43;;;;;;;;;;5031078;28;20057;-60
2022/09/20 06:56:26;;;;;;;9.60;4.65;;;;;;;;;;5031454;28;20521;-60
2022/09/20 06:58:52;;;;;;;7.28;4.18;;;;;;;;;;5032375;28;20025;-60
2022/09/20 07:01:21;;;;;;;7.80;4.10;;;;;;;;;;5031211;28;20398;-60
2022/09/20 07:03:47;;;;;;;11.43;4.50;;;;;;;;;;5031493;28;20121;-59
2022/09/20 07:06:16;;;;;;;7.63;4.30;;;;;;;;;;5025350;28;20347;-59
2022/09/20 07:08:42;;;;;;;8.32;4.50;;;;;;;;;;5032020;28;20079;-59
2022/09/20 07:11:14;;;;;;;8.10;4.53;;;;;;;;;;5031756;28;20037;-59
2022/09/20 07:13:40;;;;;;;8.13;4.32;;;;;;;;;;5031254;28;20018;-59
2022/09/20 07:16:07;;;;;;;7.78;4.85;;;;;;;;;;5031624;28;20095;-59
2022/09/20 07:18:34;;;;;;;15.60;6.35;;;;;;;;;;5032211;28;20038;-59
2022/09/20 07:21:00;;;;;;;11.52;6.25;;;;;;;;;;5031339;28;20060;-59
2022/09/20 07:23:28;;;;;;;11.75;6.43;;;;;;;;;;5030780;28;20116;-59
2022/09/20 07:25:56;;;;;;;8.80;6.00;;;;;;;;;;5030642;28;20220;-59
2022/09/20 07:28:22;;;;;;;10.35;5.65;;;;;;;;;;5038324;28;20031;-59
2022/09/20 07:30:48;;;;;;;11.20;4.88;;;;;;;;;;5035228;28;20029;-59
2022/09/20 07:33:20;;;;;;;11.18;5.60;;;;;;;;;;5030851;28;20210;-59
2022/09/20 07:35:48;;;;;;;9.65;4.70;;;;;;;;;;5028341;28;20030;-59
2022/09/20 07:38:15;;;;;;;12.57;4.78;;;;;;;;;;5031669;28;20056;-59
2022/09/20 07:40:41;;;;;;;7.68;4.45;;;;;;;;;;5031327;28;20024;-59
2022/09/20 07:43:07;;;;;;;9.63;4.38;;;;;;;;;;5030517;28;20018;-59
2022/09/20 07:45:37;;;;;;;13.52;4.35;;;;;;;;;;5031038;28;20033;-59
2022/09/20 07:48:05;;;;;;;9.10;4.72;;;;;;;;;;5031054;28;20068;-59
2022/09/20 07:50:31;;;;;;;8.18;4.50;;;;;;;;;;5031463;28;20087;-60
2022/09/20 07:52:56;;;;;;;9.63;4.82;;;;;;;;;;5030380;28;20028;-60
2022/09/20 07:55:22;;;;;;;9.52;4.40;;;;;;;;;;5025504;28;20457;-59
2022/09/20 07:57:48;;;;;;;8.70;4.40;;;;;;;;;;5030954;28;20032;-59
2022/09/20 08:00:14;;;;;;;10.10;5.07;;;;;;;;;;5030693;28;20541;-59
2022/09/20 08:02:39;;;;;;;8.65;4.32;;;;;;;;;;5029839;28;20355;-59
2022/09/20 08:05:05;;;;;;;13.98;4.55;;;;;;;;;;5030609;28;20513;-59
2022/09/20 08:07:31;;;;;;;10.93;5.25;;;;;;;;;;5031128;28;20017;-59
2022/09/20 08:09:56;;;;;;;14.10;6.60;;;;;;;;;;5029378;28;20079;-59
2022/09/20 08:12:21;;;;;;;11.57;6.75;;;;;;;;;;5029705;28;20068;-59
2022/09/20 08:14:47;;;;;;;13.60;6.63;;;;;;;;;;5030085;28;20123;-60
2022/09/20 08:17:12;;;;;;;15.20;6.57;;;;;;;;;;5030388;28;20100;-59
2022/09/20 08:19:38;;;;;;;12.13;6.50;;;;;;;;;;5030120;28;20029;-59
2022/09/20 08:22:05;;;;;;;10.02;6.30;;;;;;;;;;5061622;28;20386;-59
2022/09/20 08:24:31;;;;;;;14.07;6.93;;;;;;;;;;5031424;28;20272;-59
2022/09/20 08:26:57;;;;;;;13.38;6.80;;;;;;;;;;5029773;28;20566;-59
2022/09/20 08:29:22;;;;;;;10.80;6.80;;;;;;;;;;5030122;28;20025;-59
2022/09/20 08:31:47;;;;;;;12.77;7.18;;;;;;;;;;5028938;28;20029;-59
2022/09/20 08:34:14;;;;;;;14.10;7.78;;;;;;;;;;5025891;28;20082;-59
2022/09/20 08:36:44;;;;;;;12.90;6.20;;;;;;;;;;5030566;28;20052;-59
2022/09/20 08:39:09;;;;;;;;;;;;;;;;;;5030764;28;20017;-59
2022/09/20 08:41:40;;;;;;;10.38;5.32;;;;;;;;;;5029370;28;19913;-59
2022/09/20 08:44:16;;;;;;;11.63;6.75;;;;;;;;;;5029756;28;20467;-59
2022/09/20 08:46:47;;;;;;;14.02;6.65;;;;;;;;;;5029726;28;20024;-59
2022/09/20 08:49:25;;;;;;;17.15;7.35;;;;;;;;;;5030242;28;20577;-59
2022/09/20 08:51:52;;;;;;;13.43;6.07;;;;;;;;;;5029180;28;20033;-60
2022/09/20 08:54:17;;;;;;;15.18;5.90;;;;;;;;;;5030542;28;20036;-59
2022/09/20 08:56:48;;;;;;;11.10;5.65;;;;;;;;;;5029410;28;20395;-59
2022/09/20 08:59:18;;;;;;;8.95;5.40;;;;;;;;;;5030411;28;20025;-59
2022/09/20 09:01:45;;;;;;;14.25;5.65;;;;;;;;;;5028002;28;20116;-59
2022/09/20 09:04:17;;;;;;;14.98;5.82;;;;;;;;;;5029579;28;20061;-59
2022/09/20 09:06:43;;;;;;;10.23;5.28;;;;;;;;;;5029881;28;20029;-60
2022/09/20 09:09:24;;;;;;;8.88;5.18;;;;;;;;;;5029572;28;20051;-62
2022/09/20 09:11:51;;;;;;;19.25;5.45;;;;;;;;;;5027708;28;20747;-60
2022/09/20 09:14:48;;;;;;;16.30;5.35;;;;;;;;;;5029877;28;20084;-60
2022/09/20 09:17:19;;;;;;;12.40;5.53;;;;;;;;;;5028720;28;20049;-60
2022/09/20 09:19:50;;;;;;;10.70;4.57;;;;;;;;;;5029476;28;20386;-60
2022/09/20 09:22:38;;;;;;;9.70;4.53;;;;;;;;;;5029493;28;20095;-60
2022/09/20 09:25:15;;;;;;;10.32;4.90;;;;;;;;;;5027907;28;20029;-60
2022/09/20 09:28:06;;;;;;;9.85;4.20;;;;;;;;;;5029564;28;20510;-59
2022/09/20 09:30:43;;;;;;;10.38;4.85;;;;;;;;;;5031722;28;20030;-59
2022/09/20 09:33:24;;;;;;;8.73;4.25;;;;;;;;;;5028557;28;20084;-59
2022/09/20 09:36:06;;;;;;;9.00;3.47;;;;;;;;;;5027471;28;20025;-59
2022/09/20 09:38:37;;;;;;;11.30;3.63;;;;;;;;;;5029814;28;20655;-59
2022/09/20 09:41:25;;;;;;;7.55;3.50;;;;;;;;;;5029463;28;20384;-59
2022/09/20 09:44:03;;;;;;;6.20;3.50;;;;;;;;;;5017362;28;20041;-59
2022/09/20 09:46:33;;;;;;;10.37;3.43;;;;;;;;;;5029441;28;20032;-60
2022/09/20 09:49:08;;;;;;;8.18;3.72;;;;;;;;;;5033396;28;20414;-59
2022/09/20 09:51:34;;;;;;;9.18;3.17;;;;;;;;;;5029397;28;20071;-59
2022/09/20 09:54:01;;;;;;;8.52;2.63;;;;;;;;;;5034486;28;20048;-59
2022/09/20 09:56:46;;;;;;;9.73;3.53;;;;;;;;;;5032628;28;20537;-59
2022/09/20 09:59:17;;;;;;;5.60;3.13;;;;;;;;;;5032728;28;20045;-59
2022/09/20 10:01:49;;;;;;;10.63;3.33;;;;;;;;;;5032389;28;20033;-59
2022/09/20 10:04:14;;;;;;;8.52;3.28;;;;;;;;;;5033189;28;20036;-59
2022/09/20 10:06:52;;;;;;;6.68;3.00;;;;;;;;;;5032502;28;20021;-59
2022/09/20 10:09:35;;;;;;;6.03;2.80;;;;;;;;;;5027113;28;20021;-59
2022/09/20 10:12:19;;;;;;;8.75;2.63;;;;;;;;;;5032576;28;20386;-60
2022/09/20 10:15:00;;;;;;;6.68;2.78;;;;;;;;;;5030933;28;20036;-60
2022/09/20 10:17:56;;;;;;;8.70;2.65;;;;;;;;;;5032783;28;20040;-60
2022/09/20 10:20:42;;;;;;;5.55;2.10;;;;;;;;;;5033341;28;20026;-59
2022/09/20 10:23:20;;;;;;;4.03;2.05;;;;;;;;;;5026690;28;20040;-60
2022/09/20 10:26:06;;;;;;;10.32;2.78;;;;;;;;;;5032063;28;20094;-59
2022/09/20 10:29:08;;;;;;;6.63;2.53;;;;;;;;;;5030862;28;20560;-59
2022/09/20 10:31:36;;;;;;;9.93;2.38;;;;;;;;;;5031536;28;20419;-59
2022/09/20 10:34:10;;;;;;;9.93;2.45;;;;;;;;;;5032479;28;20507;-59
2022/09/20 10:36:59;;;;;;;9.40;3.15;;;;;;;;;;5031704;28;20044;-59
2022/09/20 10:39:40;;;;;;;8.20;3.03;;;;;;;;;;5031188;28;20594;-59
2022/09/20 10:45:25;;;;;;;5.25;2.42;;;;;;;;;;5032031;28;20382;-59
2022/09/20 10:48:14;;;;;;;7.13;2.50;;;;;;;;;;5032756;28;20101;-59
2022/09/20 10:50:43;;;;;;;11.60;3.03;;;;;;;;;;5029543;28;20479;-60
2022/09/20 10:53:30;;;;;;;6.97;2.40;;;;;;;;;;5036767;28;20036;-62
2022/09/20 10:56:09;;;;;;;6.60;2.47;;;;;;;;;;5022556;28;20029;-60
2022/09/20 10:58:59;;;;;;;9.60;2.38;;;;;;;;;;5032228;28;20108;-60
2022/09/20 11:01:43;;;;;;;5.88;2.17;;;;;;;;;;5030795;28;20902;-61
2022/09/20 11:04:27;;;;;;;8.85;2.00;;;;;;;;;;5030761;28;20025;-60
2022/09/20 11:07:24;;;;;;;5.82;1.90;;;;;;;;;;5031687;28;20061;-60
2022/09/20 11:10:13;;;;;;;3.08;1.70;;;;;;;;;;5030919;28;20460;-60
2022/09/20 11:12:44;;;;;;;;;;;;;;;;;;5031193;28;20029;-60
2022/09/20 11:15:33;;;;;;;7.72;2.42;;;;;;;;;;5030937;28;19913;-60
2022/09/20 11:18:13;;;;;;;6.28;2.40;;;;;;;;;;5031715;28;20100;-60
2022/09/20 11:20:45;;;;;;;5.10;2.20;;;;;;;;;;5031923;28;20025;-60
2022/09/20 11:23:24;;;;;;;5.70;2.00;;;;;;;;;;5031051;28;20029;-60
2022/09/20 11:25:54;;;;;;;7.88;2.85;;;;;;;;;;5029393;28;20553;-60
2022/09/20 11:28:27;;;;;;;6.68;2.50;;;;;;;;;;5031942;28;20452;-60
2022/09/20 11:31:01;;;;;;;7.13;2.33;;;;;;;;;;5031471;28;20036;-60
2022/09/20 11:33:56;;;;;;;9.05;2.53;;;;;;;;;;5030855;28;20033;-60
2022/09/20 11:36:38;;;;;;;6.63;3.55;;;;;;;;;;5024049;28;20527;-60
2022/09/20 11:39:17;;;;;;;9.50;2.20;;;;;;;;;;5030753;28;20030;-60
2022/09/20 11:41:44;;;;;;;8.32;2.30;;;;;;;;;;5028432;28;20403;-60
2022/09/20 11:44:19;;;;;;;6.97;2.17;;;;;;;;;;5031494;28;20112;-60
2022/09/20 11:47:01;;;;;;;5.07;2.05;;;;;;;;;;5030303;28;20107;-60
2022/09/20 11:49:37;;;;;;;5.65;1.83;;;;;;;;;;5027064;28;20083;-59
2022/09/20 11:52:09;;;;;;;4.78;1.80;;;;;;;;;;5031836;28;20025;-60
2022/09/20 11:55:03;;;;;;;6.78;1.90;;;;;;;;;;5029103;28;20025;-60
2022/09/20 11:57:29;;;;;;;6.72;2.05;;;;;;;;;;5026472;28;20026;-60
2022/09/20 11:59:57;;;;;;;7.25;1.83;;;;;;;;;;5031019;28;20326;-59
2022/09/20 12:02:39;;;;;;;3.42;1.67;;;;;;;;;;5029959;28;20356;-59
2022/09/20 12:05:05;;;;;;;6.78;2.20;;;;;;;;;;5029671;28;20548;-59
2022/09/20 12:07:42;;;;;;;4.78;2.47;;;;;;;;;;5030664;28;20029;-59
2022/09/20 12:10:20;;;;;;;7.95;2.90;;;;;;;;;;5030581;28;20364;-59
2022/09/20 12:12:47;;;;;;;;;;;;;;;;;;5028535;28;20491;-59
2022/09/20 12:15:34;;;;;;;6.60;2.35;;;;;;;;;;5029971;28;19963;-59
2022/09/20 12:17:59;;;;;;;6.55;2.30;;;;;;;;;;5031107;28;20029;-61
2022/09/20 12:20:33;;;;;;;4.68;1.90;;;;;;;;;;5030204;28;20514;-60
2022/09/20 12:23:39;;;;;;;4.93;1.92;;;;;;;;;;5026044;28;20076;-60
2022/09/20 12:26:21;;;;;;;6.88;2.10;;;;;;;;;;5030550;28;20384;-60
2022/09/20 12:29:22;;;;;;;5.95;2.00;;;;;;;;;;5031135;28;20049;-60
2022/09/20 12:31:49;;;;;;;6.18;2.22;;;;;;;;;;5022101;28;20038;-60
2022/09/20 12:34:14;;;;;;;5.95;1.63;;;;;;;;;;5026885;28;20605;-60
2022/09/20 12:37:04;;;;;;;5.43;1.60;;;;;;;;;;5029938;28;20132;-60
2022/09/20 12:39:37;;;;;;;6.60;1.88;;;;;;;;;;5030371;28;20029;-60
2022/09/20 12:42:27;;;;;;;4.13;1.70;;;;;;;;;;5028616;28;20394;-60
2022/09/20 12:45:04;;;;;;;7.47;1.98;;;;;;;;;;5029618;28;20033;-60
2022/09/20 12:47:35;;;;;;;6.25;2.00;;;;;;;;;;5027641;28;20025;-60
2022/09/20 12:53:15;;;;;;;4.80;1.90;;;;;;;;;;5024733;28;20044;-60
2022/09/20 12:55:54;;;;;;;9.45;2.28;;;;;;;;;;5029345;28;20099;-59
2022/09/20 12:58:25;;;;;;;10.35;1.92;;;;;;;;;;5024469;28;20030;-59
2022/09/20 13:00:59;;;;;;;2.78;1.73;;;;;;;;;;5030137;28;20375;-60
2022/09/20 13:03:27;;;;;;;4.22;1.63;;;;;;;;;;5028894;28;20029;-59
2022/09/20 13:06:05;;;;;;;4.28;1.70;;;;;;;;;;5028571;28;20025;-59
2022/09/20 13:08:50;;;;;;;6.53;1.80;;;;;;;;;;5028010;28;20510;-60
2022/09/20 13:11:17;;;;;;;5.90;1.80;;;;;;;;;;5020185;28;20208;-59
2022/09/20 13:13:57;;;;;;;6.88;1.90;;;;;;;;;;5029148;28;20077;-59
2022/09/20 13:16:34;;;;;;;7.70;1.90;;;;;;;;;;5029004;28;20041;-59
2022/09/20 13:19:11;;;;;;;2.90;1.63;;;;;;;;;;5028961;28;20018;-60
2022/09/20 13:21:39;;;;;;;7.32;1.92;;;;;;;;;;5026753;28;20413;-59
2022/09/20 13:24:07;;;;;;;6.15;1.95;;;;;;;;;;5029148;28;20028;-60
2022/09/20 13:26:40;;;;;;;3.88;1.63;;;;;;;;;;5028963;28;20411;-60
2022/09/20 13:29:08;;;;;;;6.82;2.55;;;;;;;;;;5029193;28;20087;-60
2022/09/20 13:31:34;;;;;;;6.07;1.88;;;;;;;;;;5029023;28;20064;-59
2022/09/20 13:34:17;;;;;;;5.13;2.33;;;;;;;;;;5061214;28;20021;-59
2022/09/20 13:36:43;;;;;;;4.20;1.70;;;;;;;;;;5029236;28;20441;-59
2022/09/20 13:39:27;;;;;;;3.85;1.80;;;;;;;;;;5029585;28;20025;-60
2022/09/20 13:41:52;;;;;;;5.97;2.22;;;;;;;;;;5029629;28;20164;-59
2022/09/20 13:44:18;;;;;;;8.52;2.60;;;;;;;;;;5061663;28;20037;-60
2022/09/20 13:46:44;;;;;;;6.63;2.45;;;;;;;;;;5028533;28;20030;-60
2022/09/20 13:49:16;;;;;;;6.03;2.28;;;;;;;;;;5027780;28;20026;-60
2022/09/20 13:51:42;;;;;;;8.65;2.33;;;;;;;;;;5028637;28;20403;-60
2022/09/20 13:54:26;;;;;;;5.05;1.98;;;;;;;;;;5029271;28;20025;-60
2022/09/20 13:56:54;;;;;;;6.35;2.00;;;;;;;;;;5027688;28;20022;-60
2022/09/20 13:59:19;;;;;;;3.50;2.50;;;;;;;;;;5029388;28;20365;-60
2022/09/20 14:01:50;;;;;;;5.82;2.45;;;;;;;;;;5028425;28;20079;-60
2022/09/20 14:04:20;;;;;;;4.07;2.70;;;;;;;;;;5028857;28;20026;-60
2022/09/20 14:06:46;;;;;;;5.05;2.53;;;;;;;;;;5026483;28;20021;-60
2022/09/20 14:09:24;;;;;;;5.20;2.80;;;;;;;;;;5029294;28;20072;-60
2022/09/20 14:11:50;;;;;;;3.87;2.60;;;;;;;;;;5028062;28;20033;-60
2022/09/20 14:14:18;;;;;;;8.48;3.22;;;;;;;;;;5028831;28;20560;-60
2022/09/20 14:16:45;;;;;;;6.57;3.25;;;;;;;;;;5028483;28;20391;-60
2022/09/20 14:19:14;;;;;;;3.47;2.63;;;;;;;;;;5028239;28;20475;-60
2022/09/20 14:21:40;;;;;;;6.03;3.10;;;;;;;;;;5030973;28;20056;-60
2022/09/20 14:24:15;;;;;;;4.90;2.92;;;;;;;;;;5027358;28;20368;-60
2022/09/20 14:26:41;;;;;;;5.53;3.15;;;;;;;;;;5024198;28;20021;-60
2022/09/20 14:29:46;;;;;;;6.68;3.17;;;;;;;;;;5026635;28;20104;-59
2022/09/20 14:32:17;;;;;;;4.45;2.90;;;;;;;;;;5029964;28;20064;-59
2022/09/20 14:35:19;;;;;;;5.95;3.00;;;;;;;;;;5032661;28;20059;-59
2022/09/20 14:37:55;;;;;;;5.05;3.20;;;;;;;;;;5030205;28;20056;-59
2022/09/20 14:40:39;;;;;;;5.47;3.35;;;;;;;;;;5032204;28;20032;-60
2022/09/20 14:43:05;;;;;;;5.40;3.03;;;;;;;;;;5031258;28;20028;-61
2022/09/20 14:45:34;;;;;;;6.60;3.28;;;;;;;;;;5031596;28;20025;-60
2022/09/20 14:48:02;;;;;;;7.63;4.32;;;;;;;;;;5031829;28;20394;-60
2022/09/20 14:50:43;;;;;;;6.50;3.95;;;;;;;;;;5031744;28;20025;-60
2022/09/20 14:53:09;;;;;;;6.22;3.47;;;;;;;;;;5031118;28;20057;-60
2022/09/20 14:55:36;;;;;;;6.80;3.15;;;;;;;;;;5031331;28;20021;-60
2022/09/20 14:58:25;;;;;;;7.15;3.00;;;;;;;;;;5031322;28;20045;-60
2022/09/20 15:00:51;;;;;;;4.32;2.50;;;;;;;;;;5032203;28;20540;-59
2022/09/20 15:03:25;;;;;;;7.07;3.10;;;;;;;;;;5032118;28;20033;-60
2022/09/20 15:05:50;;;;;;;6.93;3.38;;;;;;;;;;5030586;28;20029;-60
2022/09/20 15:08:16;;;;;;;5.72;3.05;;;;;;;;;;5031678;28;20025;-60
2022/09/20 15:10:42;;;;;;;6.60;3.17;;;;;;;;;;5031424;28;20034;-60
2022/09/20 15:13:10;;;;;;;10.60;3.50;;;;;;;;;;5030743;28;20040;-60
2022/09/20 15:15:36;;;;;;;5.22;2.80;;;;;;;;;;5030633;28;20033;-60
2022/09/20 15:18:02;;;;;;;7.20;2.90;;;;;;;;;;5032824;28;20021;-60
2022/09/20 15:20:28;;;;;;;7.03;2.70;;;;;;;;;;5030843;28;20031;-60
2022/09/20 15:22:54;;;;;;;9.50;3.50;;;;;;;;;;5032335;28;20487;-60
2022/09/20 15:25:20;;;;;;;8.38;2.70;;;;;;;;;;5030813;28;20060;-60
2022/09/20 15:27:47;;;;;;;8.07;2.80;;;;;;;;;;5033085;28;20048;-60
2022/09/20 15:30:15;;;;;;;6.97;2.63;;;;;;;;;;5032252;28;20026;-60
2022/09/20 15:32:42;;;;;;;7.38;3.20;;;;;;;;;;5030462;28;20029;-59
2022/09/20 15:35:07;;;;;;;8.65;3.08;;;;;;;;;;5028929;28;20434;-59
2022/09/20 15:37:34;;;;;;;9.25;3.30;;;;;;;;;;5030896;28;20034;-59
2022/09/20 15:39:59;;;;;;;4.82;2.90;;;;;;;;;;5029363;28;20079;-59
2022/09/20 15:42:24;;;;;;;5.32;2.90;;;;;;;;;;5029970;28;20116;-59